sensor_id;sensor_type;location;lat;lon;timestamp;pressure;altitude;pressure_sealevel;temperature;humidity
29549;BME280;16487;53.094;8.800;2022-08-02T00:01:49;101997.94;;;13.37;100.00
29549;BME280;16487;53.094;8.800;2022-08-02T00:04:19;101992.06;;;13.51;100.00
29549;BME280;16487;53.094;8.800;2022-08-02T00:06:47;101989.53;;;13.57;100.00
29549;BME280;16487;53.094;8.800;2022-08-02T00:09:16;101991.16;;;13.38;100.00
29549;BME280;16487;53.094;8.800;2022-08-02T00:11:47;101986.31;;;13.39;100.00
29549;BME280;16487;53.094;8.800;2022-08-02T00:14:16;101991.22;;;13.35;100.00
29549;BME280;16487;53.094;8.800;2022-08-02T00:16:45;101995.00;;;13.44;100.00
29549;BME280;16487;53.094;8.800;2022-08-02T00:19:15;101998.53;;;13.48;100.00
29549;BME280;16487;53.094;8.800;2022-08-02T00:21:44;101996.09;;;13.50;100.00
29549;BME280;16487;53.094;8.800;2022-08-02T00:24:12;102004.63;;;13.43;100.00
29549;BME280;16487;53.094;8.800;2022-08-02T00:26:55;102006.13;;;13.48;100.00
29549;BME280;16487;53.094;8.800;2022-08-02T00:29:24;102010.50;;;13.49;100.00
29549;BME280;16487;53.094;8.800;2022-08-02T00:31:53;102011.66;;;13.51;100.00
29549;BME280;16487;53.094;8.800;2022-08-02T00:34:24;102007.06;;;13.41;100.00
29549;BME280;16487;53.094;8.800;2022-08-02T00:37:01;102016.00;;;13.36;100.00
29549;BME280;16487;53.094;8.800;2022-08-02T00:39:29;102008.78;;;13.35;100.00
29549;BME280;16487;53.094;8.800;2022-08-02T00:42:02;102019.50;;;13.40;100.00
29549;BME280;16487;53.094;8.800;2022-08-02T00:44:30;102020.00;;;13.35;100.00
29549;BME280;16487;53.094;8.800;2022-08-02T00:46:59;102014.53;;;13.28;100.00
29549;BME280;16487;53.094;8.800;2022-08-02T00:49:30;102016.28;;;13.22;100.00
29549;BME280;16487;53.094;8.800;2022-08-02T00:51:59;102008.38;;;13.17;100.00
29549;BME280;16487;53.094;8.800;2022-08-02T00:54:30;102015.19;;;13.16;100.00
29549;BME280;16487;53.094;8.800;2022-08-02T00:56:59;102017.22;;;13.16;100.00
29549;BME280;16487;53.094;8.800;2022-08-02T00:59:28;102014.41;;;13.16;100.00
29549;BME280;16487;53.094;8.800;2022-08-02T01:01:57;102018.97;;;13.06;100.00
29549;BME280;16487;53.094;8.800;2022-08-02T01:04:26;102026.38;;;13.16;100.00
29549;BME280;16487;53.094;8.800;2022-08-02T01:07:00;102031.41;;;13.25;100.00
29549;BME280;16487;53.094;8.800;2022-08-02T01:09:40;102026.50;;;13.09;100.00
29549;BME280;16487;53.094;8.800;2022-08-02T01:12:09;102029.03;;;13.04;100.00
29549;BME280;16487;53.094;8.800;2022-08-02T01:14:40;102036.56;;;13.07;100.00
29549;BME280;16487;53.094;8.800;2022-08-02T01:17:22;102037.38;;;13.07;100.00
29549;BME280;16487;53.094;8.800;2022-08-02T01:20:04;102039.03;;;13.01;100.00
29549;BME280;16487;53.094;8.800;2022-08-02T01:22:44;102033.50;;;12.98;100.00
29549;BME280;16487;53.094;8.800;2022-08-02T01:25:52;102032.78;;;12.94;100.00
29549;BME280;16487;53.094;8.800;2022-08-02T01:28:34;102044.53;;;12.85;100.00
29549;BME280;16487;53.094;8.800;2022-08-02T01:31:09;102047.56;;;12.94;100.00
29549;BME280;16487;53.094;8.800;2022-08-02T01:33:43;102042.28;;;13.00;100.00
29549;BME280;16487;53.094;8.800;2022-08-02T01:36:16;102049.06;;;12.99;100.00
29549;BME280;16487;53.094;8.800;2022-08-02T01:38:48;102054.81;;;12.92;100.00
29549;BME280;16487;53.094;8.800;2022-08-02T01:41:19;102044.47;;;12.89;100.00
29549;BME280;16487;53.094;8.800;2022-08-02T01:43:54;102050.00;;;12.92;100.00
29549;BME280;16487;53.094;8.800;2022-08-02T01:46:26;102045.63;;;12.91;100.00
29549;BME280;16487;53.094;8.800;2022-08-02T01:48:56;102044.47;;;12.89;100.00
29549;BME280;16487;53.094;8.800;2022-08-02T01:51:26;102036.38;;;12.71;100.00
29549;BME280;16487;53.094;8.800;2022-08-02T01:54:16;102041.22;;;12.71;100.00
29549;BME280;16487;53.094;8.800;2022-08-02T01:56:46;102046.69;;;12.78;100.00
29549;BME280;16487;53.094;8.800;2022-08-02T01:59:20;102045.38;;;12.82;100.00
29549;BME280;16487;53.094;8.800;2022-08-02T02:01:50;102042.84;;;12.91;100.00
29549;BME280;16487;53.094;8.800;2022-08-02T02:04:22;102039.31;;;12.87;100.00
29549;BME280;16487;53.094;8.800;2022-08-02T02:06:53;102035.38;;;12.85;100.00
29549;BME280;16487;53.094;8.800;2022-08-02T02:09:25;102034.06;;;12.89;100.00
29549;BME280;16487;53.094;8.800;2022-08-02T02:11:55;102036.56;;;12.84;100.00
29549;BME280;16487;53.094;8.800;2022-08-02T02:14:42;102039.78;;;12.82;100.00
29549;BME280;16487;53.094;8.800;2022-08-02T02:17:19;102031.41;;;12.82;100.00
29549;BME280;16487;53.094;8.800;2022-08-02T02:20:13;102033.84;;;12.80;100.00
29549;BME280;16487;53.094;8.800;2022-08-02T02:22:43;102031.00;;;12.60;100.00
29549;BME280;16487;53.094;8.800;2022-08-02T02:25:18;102032.25;;;12.79;100.00
29549;BME280;16487;53.094;8.800;2022-08-02T02:28:07;102037.00;;;12.82;100.00
29549;BME280;16487;53.094;8.800;2022-08-02T02:30:40;102029.97;;;12.94;100.00
29549;BME280;16487;53.094;8.800;2022-08-02T02:33:12;102034.75;;;12.97;100.00
29549;BME280;16487;53.094;8.800;2022-08-02T02:35:42;102024.38;;;12.74;100.00
29549;BME280;16487;53.094;8.800;2022-08-02T02:38:13;102030.91;;;12.64;100.00
29549;BME280;16487;53.094;8.800;2022-08-02T02:40:46;102030.22;;;12.60;100.00
29549;BME280;16487;53.094;8.800;2022-08-02T02:43:16;102017.53;;;12.52;100.00
29549;BME280;16487;53.094;8.800;2022-08-02T02:45:46;102026.91;;;12.65;100.00
29549;BME280;16487;53.094;8.800;2022-08-02T02:48:16;102023.06;;;12.79;100.00
29549;BME280;16487;53.094;8.800;2022-08-02T02:50:46;102023.50;;;12.77;100.00
29549;BME280;16487;53.094;8.800;2022-08-02T02:53:18;102021.84;;;12.80;100.00
29549;BME280;16487;53.094;8.800;2022-08-02T02:55:48;102037.31;;;12.88;100.00
29549;BME280;16487;53.094;8.800;2022-08-02T02:58:29;102023.25;;;12.91;100.00
29549;BME280;16487;53.094;8.800;2022-08-02T03:01:00;102020.72;;;12.77;100.00
29549;BME280;16487;53.094;8.800;2022-08-02T03:03:46;102013.13;;;12.78;100.00
29549;BME280;16487;53.094;8.800;2022-08-02T03:06:15;102017.78;;;12.84;100.00
29549;BME280;16487;53.094;8.800;2022-08-02T03:08:44;102010.19;;;12.61;100.00
29549;BME280;16487;53.094;8.800;2022-08-02T03:11:14;102005.72;;;12.44;100.00
29549;BME280;16487;53.094;8.800;2022-08-02T03:13:43;102005.63;;;12.25;100.00
29549;BME280;16487;53.094;8.800;2022-08-02T03:16:13;102004.59;;;12.38;100.00
29549;BME280;16487;53.094;8.800;2022-08-02T03:18:42;102015.34;;;12.40;100.00
29549;BME280;16487;53.094;8.800;2022-08-02T03:21:12;102021.06;;;12.33;100.00
29549;BME280;16487;53.094;8.800;2022-08-02T03:23:41;102018.09;;;12.43;100.00
29549;BME280;16487;53.094;8.800;2022-08-02T03:26:10;102016.88;;;12.44;100.00
29549;BME280;16487;53.094;8.800;2022-08-02T03:28:39;102016.22;;;12.37;100.00
29549;BME280;16487;53.094;8.800;2022-08-02T03:31:09;102012.34;;;12.31;100.00
29549;BME280;16487;53.094;8.800;2022-08-02T03:33:40;102013.75;;;12.16;100.00
29549;BME280;16487;53.094;8.800;2022-08-02T03:36:11;102009.59;;;12.01;100.00
29549;BME280;16487;53.094;8.800;2022-08-02T03:38:41;102009.22;;;11.99;100.00
29549;BME280;16487;53.094;8.800;2022-08-02T03:41:13;102004.75;;;12.05;100.00
29549;BME280;16487;53.094;8.800;2022-08-02T03:43:44;102006.22;;;12.13;100.00
29549;BME280;16487;53.094;8.800;2022-08-02T03:46:16;102009.59;;;12.27;100.00
29549;BME280;16487;53.094;8.800;2022-08-02T03:48:46;102004.06;;;12.24;100.00
29549;BME280;16487;53.094;8.800;2022-08-02T03:51:17;101998.09;;;12.22;100.00
29549;BME280;16487;53.094;8.800;2022-08-02T03:53:46;102008.53;;;12.18;100.00
29549;BME280;16487;53.094;8.800;2022-08-02T03:56:15;102006.69;;;12.08;100.00
29549;BME280;16487;53.094;8.800;2022-08-02T03:58:44;102004.34;;;12.06;100.00
29549;BME280;16487;53.094;8.800;2022-08-02T04:01:15;102006.00;;;12.27;100.00
29549;BME280;16487;53.094;8.800;2022-08-02T04:03:45;102011.09;;;12.32;100.00
29549;BME280;16487;53.094;8.800;2022-08-02T04:06:14;102016.53;;;12.16;100.00
29549;BME280;16487;53.094;8.800;2022-08-02T04:08:43;102020.94;;;12.17;100.00
29549;BME280;16487;53.094;8.800;2022-08-02T04:11:11;102022.78;;;12.27;100.00
29549;BME280;16487;53.094;8.800;2022-08-02T04:14:01;102028.72;;;12.29;100.00
29549;BME280;16487;53.094;8.800;2022-08-02T04:16:36;102018.03;;;12.24;100.00
29549;BME280;16487;53.094;8.800;2022-08-02T04:19:10;102023.50;;;12.31;100.00
29549;BME280;16487;53.094;8.800;2022-08-02T04:21:43;102022.47;;;12.44;100.00
29549;BME280;16487;53.094;8.800;2022-08-02T04:24:22;102024.06;;;12.45;100.00
29549;BME280;16487;53.094;8.800;2022-08-02T04:26:55;102021.56;;;12.51;100.00
29549;BME280;16487;53.094;8.800;2022-08-02T04:29:44;102020.81;;;12.47;100.00
29549;BME280;16487;53.094;8.800;2022-08-02T04:32:15;102016.78;;;12.51;100.00
29549;BME280;16487;53.094;8.800;2022-08-02T04:34:46;102011.50;;;12.57;100.00
29549;BME280;16487;53.094;8.800;2022-08-02T04:37:36;102011.00;;;12.62;100.00
29549;BME280;16487;53.094;8.800;2022-08-02T04:40:25;102008.19;;;12.62;100.00
29549;BME280;16487;53.094;8.800;2022-08-02T04:42:54;102003.81;;;12.61;100.00
29549;BME280;16487;53.094;8.800;2022-08-02T04:45:24;102020.09;;;12.66;100.00
29549;BME280;16487;53.094;8.800;2022-08-02T04:47:53;102023.00;;;12.59;100.00
29549;BME280;16487;53.094;8.800;2022-08-02T04:50:33;102015.13;;;12.54;100.00
29549;BME280;16487;53.094;8.800;2022-08-02T04:53:01;102023.31;;;12.64;100.00
29549;BME280;16487;53.094;8.800;2022-08-02T04:55:30;102024.91;;;12.65;100.00
29549;BME280;16487;53.094;8.800;2022-08-02T04:57:59;102028.50;;;12.66;100.00
29549;BME280;16487;53.094;8.800;2022-08-02T05:00:35;102020.72;;;12.77;100.00
29549;BME280;16487;53.094;8.800;2022-08-02T05:03:04;102013.94;;;12.75;100.00
29549;BME280;16487;53.094;8.800;2022-08-02T05:05:35;102006.72;;;12.77;100.00
29549;BME280;16487;53.094;8.800;2022-08-02T05:08:04;102008.66;;;12.80;100.00
29549;BME280;16487;53.094;8.800;2022-08-02T05:10:33;102012.56;;;12.86;100.00
29549;BME280;16487;53.094;8.800;2022-08-02T05:13:03;102021.66;;;12.90;100.00
29549;BME280;16487;53.094;8.800;2022-08-02T05:15:32;102028.34;;;12.96;100.00
29549;BME280;16487;53.094;8.800;2022-08-02T05:18:01;102023.44;;;13.04;100.00
29549;BME280;16487;53.094;8.800;2022-08-02T05:20:29;102016.13;;;13.10;100.00
29549;BME280;16487;53.094;8.800;2022-08-02T05:22:59;102016.41;;;13.15;100.00
29549;BME280;16487;53.094;8.800;2022-08-02T05:25:29;102017.84;;;13.23;100.00
29549;BME280;16487;53.094;8.800;2022-08-02T05:27:58;102013.84;;;13.24;100.00
29549;BME280;16487;53.094;8.800;2022-08-02T05:30:27;102004.50;;;13.31;100.00
29549;BME280;16487;53.094;8.800;2022-08-02T05:32:55;102003.91;;;13.39;100.00
29549;BME280;16487;53.094;8.800;2022-08-02T05:35:24;102000.59;;;13.44;100.00
29549;BME280;16487;53.094;8.800;2022-08-02T05:37:53;102000.59;;;13.44;100.00
29549;BME280;16487;53.094;8.800;2022-08-02T05:40:23;102001.63;;;13.54;100.00
29549;BME280;16487;53.094;8.800;2022-08-02T05:42:52;101989.81;;;13.62;100.00
29549;BME280;16487;53.094;8.800;2022-08-02T05:45:21;101981.75;;;13.64;100.00
29549;BME280;16487;53.094;8.800;2022-08-02T05:47:50;101983.09;;;13.76;100.00
29549;BME280;16487;53.094;8.800;2022-08-02T05:50:19;101986.03;;;13.89;100.00
29549;BME280;16487;53.094;8.800;2022-08-02T05:52:55;101987.44;;;13.97;100.00
29549;BME280;16487;53.094;8.800;2022-08-02T05:55:33;101982.00;;;14.06;100.00
29549;BME280;16487;53.094;8.800;2022-08-02T05:58:05;101979.88;;;14.10;100.00
29549;BME280;16487;53.094;8.800;2022-08-02T06:00:40;101982.97;;;14.15;100.00
29549;BME280;16487;53.094;8.800;2022-08-02T06:03:14;101981.66;;;14.20;100.00
29549;BME280;16487;53.094;8.800;2022-08-02T06:05:50;101978.78;;;14.23;100.00
29549;BME280;16487;53.094;8.800;2022-08-02T06:08:24;101984.56;;;14.32;100.00
29549;BME280;16487;53.094;8.800;2022-08-02T06:11:00;101987.63;;;14.38;100.00
29549;BME280;16487;53.094;8.800;2022-08-02T06:13:30;101982.72;;;14.42;100.00
29549;BME280;16487;53.094;8.800;2022-08-02T06:15:59;101982.91;;;14.51;100.00
29549;BME280;16487;53.094;8.800;2022-08-02T06:18:29;101980.25;;;14.60;100.00
29549;BME280;16487;53.094;8.800;2022-08-02T06:21:01;101977.59;;;14.69;100.00
29549;BME280;16487;53.094;8.800;2022-08-02T06:23:50;101972.31;;;14.87;100.00
29549;BME280;16487;53.094;8.800;2022-08-02T06:26:27;101954.03;;;14.95;100.00
29549;BME280;16487;53.094;8.800;2022-08-02T06:28:57;101949.66;;;14.94;100.00
29549;BME280;16487;53.094;8.800;2022-08-02T06:31:26;101942.03;;;15.07;100.00
29549;BME280;16487;53.094;8.800;2022-08-02T06:33:55;101936.72;;;15.25;100.00
29549;BME280;16487;53.094;8.800;2022-08-02T06:36:29;101931.66;;;15.33;100.00
29549;BME280;16487;53.094;8.800;2022-08-02T06:39:03;101922.00;;;15.34;100.00
29549;BME280;16487;53.094;8.800;2022-08-02T06:41:38;101896.06;;;15.42;100.00
29549;BME280;16487;53.094;8.800;2022-08-02T06:44:13;101903.25;;;15.43;100.00
29549;BME280;16487;53.094;8.800;2022-08-02T06:47:02;101904.41;;;15.58;100.00
29549;BME280;16487;53.094;8.800;2022-08-02T06:49:39;101907.66;;;15.69;100.00
29549;BME280;16487;53.094;8.800;2022-08-02T06:52:22;101902.81;;;15.82;100.00
29549;BME280;16487;53.094;8.800;2022-08-02T06:54:56;101896.19;;;15.76;100.00
29549;BME280;16487;53.094;8.800;2022-08-02T06:57:27;101900.31;;;15.84;100.00
29549;BME280;16487;53.094;8.800;2022-08-02T06:59:57;101899.22;;;15.94;100.00
29549;BME280;16487;53.094;8.800;2022-08-02T07:02:28;101902.41;;;16.18;100.00
29549;BME280;16487;53.094;8.800;2022-08-02T07:04:58;101902.41;;;16.18;100.00
29549;BME280;16487;53.094;8.800;2022-08-02T07:07:27;101909.25;;;16.30;100.00
29549;BME280;16487;53.094;8.800;2022-08-02T07:09:56;101917.34;;;16.28;100.00
29549;BME280;16487;53.094;8.800;2022-08-02T07:12:30;101901.47;;;16.34;100.00
29549;BME280;16487;53.094;8.800;2022-08-02T07:15:00;101905.13;;;16.56;100.00
29549;BME280;16487;53.094;8.800;2022-08-02T07:17:30;101910.03;;;16.64;100.00
29549;BME280;16487;53.094;8.800;2022-08-02T07:19:59;101918.75;;;16.57;100.00
29549;BME280;16487;53.094;8.800;2022-08-02T07:22:29;101904.63;;;16.70;100.00
29549;BME280;16487;53.094;8.800;2022-08-02T07:24:58;101892.38;;;16.85;100.00
29549;BME280;16487;53.094;8.800;2022-08-02T07:27:29;101879.34;;;17.00;100.00
29549;BME280;16487;53.094;8.800;2022-08-02T07:29:58;101863.22;;;17.01;100.00
29549;BME280;16487;53.094;8.800;2022-08-02T07:32:29;101860.53;;;17.19;100.00
29549;BME280;16487;53.094;8.800;2022-08-02T07:34:59;101862.50;;;17.40;100.00
29549;BME280;16487;53.094;8.800;2022-08-02T07:37:34;101859.72;;;17.49;100.00
29549;BME280;16487;53.094;8.800;2022-08-02T07:40:25;101848.16;;;17.56;100.00
29549;BME280;16487;53.094;8.800;2022-08-02T07:42:56;101840.81;;;17.59;100.00
29549;BME280;16487;53.094;8.800;2022-08-02T07:45:31;101838.34;;;17.70;100.00
29549;BME280;16487;53.094;8.800;2022-08-02T07:48:02;101841.97;;;17.79;100.00
29549;BME280;16487;53.094;8.800;2022-08-02T07:50:31;101838.84;;;17.86;100.00
29549;BME280;16487;53.094;8.800;2022-08-02T07:53:00;101839.94;;;17.89;100.00
29549;BME280;16487;53.094;8.800;2022-08-02T07:55:29;101829.97;;;18.06;100.00
29549;BME280;16487;53.094;8.800;2022-08-02T07:58:09;101844.84;;;18.06;100.00
29549;BME280;16487;53.094;8.800;2022-08-02T08:00:41;101848.94;;;18.23;100.00
29549;BME280;16487;53.094;8.800;2022-08-02T08:03:11;101846.44;;;18.35;100.00
29549;BME280;16487;53.094;8.800;2022-08-02T08:05:40;101835.19;;;18.44;100.00
29549;BME280;16487;53.094;8.800;2022-08-02T08:08:09;101830.44;;;18.50;100.00
29549;BME280;16487;53.094;8.800;2022-08-02T08:10:44;101825.75;;;18.56;100.00
29549;BME280;16487;53.094;8.800;2022-08-02T08:13:14;101834.06;;;18.59;100.00
29549;BME280;16487;53.094;8.800;2022-08-02T08:15:43;101830.44;;;18.59;100.00
29549;BME280;16487;53.094;8.800;2022-08-02T08:18:19;101832.78;;;18.78;100.00
29549;BME280;16487;53.094;8.800;2022-08-02T08:20:48;101820.94;;;18.98;100.00
29549;BME280;16487;53.094;8.800;2022-08-02T08:23:18;101825.50;;;19.04;100.00
29549;BME280;16487;53.094;8.800;2022-08-02T08:25:47;101818.56;;;19.14;100.00
29549;BME280;16487;53.094;8.800;2022-08-02T08:28:17;101822.91;;;19.33;100.00
29549;BME280;16487;53.094;8.800;2022-08-02T08:30:45;101804.94;;;19.46;100.00
29549;BME280;16487;53.094;8.800;2022-08-02T08:33:14;101800.66;;;19.50;100.00
29549;BME280;16487;53.094;8.800;2022-08-02T08:35:43;101787.63;;;19.53;100.00
29549;BME280;16487;53.094;8.800;2022-08-02T08:38:12;101790.59;;;19.58;100.00
29549;BME280;16487;53.094;8.800;2022-08-02T08:40:41;101796.81;;;19.62;100.00
29549;BME280;16487;53.094;8.800;2022-08-02T08:43:14;101787.03;;;19.72;100.00
29549;BME280;16487;53.094;8.800;2022-08-02T08:45:45;101785.72;;;19.82;100.00
29549;BME280;16487;53.094;8.800;2022-08-02T08:48:23;101782.47;;;20.13;100.00
29549;BME280;16487;53.094;8.800;2022-08-02T08:51:01;101778.41;;;19.90;100.00
29549;BME280;16487;53.094;8.800;2022-08-02T08:53:36;101782.75;;;20.38;100.00
29549;BME280;16487;53.094;8.800;2022-08-02T08:56:07;101788.72;;;20.40;100.00
29549;BME280;16487;53.094;8.800;2022-08-02T08:58:44;101777.69;;;20.72;100.00
29549;BME280;16487;53.094;8.800;2022-08-02T09:01:15;101777.00;;;20.77;100.00
29549;BME280;16487;53.094;8.800;2022-08-02T09:03:44;101767.13;;;20.87;100.00
29549;BME280;16487;53.094;8.800;2022-08-02T09:06:14;101769.78;;;20.61;100.00
29549;BME280;16487;53.094;8.800;2022-08-02T09:08:42;101776.53;;;20.64;100.00
29549;BME280;16487;53.094;8.800;2022-08-02T09:11:13;101759.00;;;20.80;100.00
29549;BME280;16487;53.094;8.800;2022-08-02T09:13:50;101752.94;;;20.87;100.00
29549;BME280;16487;53.094;8.800;2022-08-02T09:16:32;101752.19;;;21.01;100.00
29549;BME280;16487;53.094;8.800;2022-08-02T09:19:16;101755.69;;;21.10;100.00
29549;BME280;16487;53.094;8.800;2022-08-02T09:21:48;101753.09;;;21.27;100.00
29549;BME280;16487;53.094;8.800;2022-08-02T09:24:18;101752.31;;;21.26;100.00
29549;BME280;16487;53.094;8.800;2022-08-02T09:26:48;101747.91;;;21.60;100.00
29549;BME280;16487;53.094;8.800;2022-08-02T09:29:20;101749.03;;;21.68;100.00
29549;BME280;16487;53.094;8.800;2022-08-02T09:32:01;101737.25;;;21.55;100.00
29549;BME280;16487;53.094;8.800;2022-08-02T09:34:45;101744.22;;;21.94;100.00
29549;BME280;16487;53.094;8.800;2022-08-02T09:37:24;101745.81;;;21.95;100.00
29549;BME280;16487;53.094;8.800;2022-08-02T09:39:54;101750.88;;;22.31;100.00
29549;BME280;16487;53.094;8.800;2022-08-02T09:42:26;101740.34;;;23.73;100.00
29549;BME280;16487;53.094;8.800;2022-08-02T09:44:59;101729.97;;;24.34;100.00
29549;BME280;16487;53.094;8.800;2022-08-02T09:47:29;101722.50;;;25.93;100.00
29549;BME280;16487;53.094;8.800;2022-08-02T09:50:04;101729.44;;;25.30;100.00
29549;BME280;16487;53.094;8.800;2022-08-02T09:52:38;101732.88;;;24.95;100.00
29549;BME280;16487;53.094;8.800;2022-08-02T09:55:10;101720.78;;;26.20;100.00
29549;BME280;16487;53.094;8.800;2022-08-02T09:57:39;101731.13;;;25.77;100.00
29549;BME280;16487;53.094;8.800;2022-08-02T10:00:09;101725.56;;;25.22;100.00
29549;BME280;16487;53.094;8.800;2022-08-02T10:03:07;101728.25;;;25.82;100.00
29549;BME280;16487;53.094;8.800;2022-08-02T10:05:49;101729.41;;;25.57;100.00
29549;BME280;16487;53.094;8.800;2022-08-02T10:08:28;101723.34;;;25.72;100.00
29549;BME280;16487;53.094;8.800;2022-08-02T10:11:00;101732.44;;;26.28;100.00
29549;BME280;16487;53.094;8.800;2022-08-02T10:13:31;101723.88;;;26.28;100.00
29549;BME280;16487;53.094;8.800;2022-08-02T10:16:01;101718.75;;;26.15;100.00
29549;BME280;16487;53.094;8.800;2022-08-02T10:18:32;101721.88;;;26.52;100.00
29549;BME280;16487;53.094;8.800;2022-08-02T10:21:13;101714.25;;;26.95;100.00
29549;BME280;16487;53.094;8.800;2022-08-02T10:23:43;101724.88;;;27.00;100.00
29549;BME280;16487;53.094;8.800;2022-08-02T10:26:14;101717.75;;;26.83;100.00
29549;BME280;16487;53.094;8.800;2022-08-02T10:28:46;101714.47;;;26.73;100.00
29549;BME280;16487;53.094;8.800;2022-08-02T10:31:19;101716.63;;;26.91;100.00
29549;BME280;16487;53.094;8.800;2022-08-02T10:33:53;101707.09;;;26.83;100.00
29549;BME280;16487;53.094;8.800;2022-08-02T10:36:23;101706.47;;;26.26;100.00
29549;BME280;16487;53.094;8.800;2022-08-02T10:38:54;101704.53;;;26.39;100.00
29549;BME280;16487;53.094;8.800;2022-08-02T10:41:45;101701.06;;;26.17;100.00
29549;BME280;16487;53.094;8.800;2022-08-02T10:44:35;101712.53;;;26.52;100.00
29549;BME280;16487;53.094;8.800;2022-08-02T10:47:22;101701.28;;;26.59;100.00
29549;BME280;16487;53.094;8.800;2022-08-02T10:49:54;101692.06;;;27.26;100.00
29549;BME280;16487;53.094;8.800;2022-08-02T10:52:23;101690.53;;;27.00;100.00
29549;BME280;16487;53.094;8.800;2022-08-02T10:54:57;101693.06;;;26.80;100.00
29549;BME280;16487;53.094;8.800;2022-08-02T10:57:27;101694.91;;;26.77;100.00
29549;BME280;16487;53.094;8.800;2022-08-02T11:00:00;101693.19;;;26.93;100.00
29549;BME280;16487;53.094;8.800;2022-08-02T11:02:38;101686.06;;;27.53;100.00
29549;BME280;16487;53.094;8.800;2022-08-02T11:05:13;101677.22;;;27.94;100.00
29549;BME280;16487;53.094;8.800;2022-08-02T11:07:44;101680.88;;;27.03;100.00
29549;BME280;16487;53.094;8.800;2022-08-02T11:10:30;101674.94;;;27.50;100.00
29549;BME280;16487;53.094;8.800;2022-08-02T11:13:02;101680.72;;;27.63;100.00
29549;BME280;16487;53.094;8.800;2022-08-02T11:15:50;101659.78;;;28.74;100.00
29549;BME280;16487;53.094;8.800;2022-08-02T11:18:20;101649.88;;;30.13;100.00
29549;BME280;16487;53.094;8.800;2022-08-02T11:21:21;101666.78;;;29.04;100.00
29549;BME280;16487;53.094;8.800;2022-08-02T11:23:50;101659.59;;;29.63;100.00
29549;BME280;16487;53.094;8.800;2022-08-02T11:26:41;101641.13;;;29.85;100.00
29549;BME280;16487;53.094;8.800;2022-08-02T11:29:10;101652.78;;;29.66;100.00
29549;BME280;16487;53.094;8.800;2022-08-02T11:31:44;101651.56;;;29.36;100.00
29549;BME280;16487;53.094;8.800;2022-08-02T11:34:15;101646.25;;;29.66;100.00
29549;BME280;16487;53.094;8.800;2022-08-02T11:37:05;101642.28;;;29.43;100.00
29549;BME280;16487;53.094;8.800;2022-08-02T11:39:34;101642.28;;;29.56;100.00
29549;BME280;16487;53.094;8.800;2022-08-02T11:42:02;101648.28;;;29.32;100.00
29549;BME280;16487;53.094;8.800;2022-08-02T11:44:39;101636.72;;;30.38;100.00
29549;BME280;16487;53.094;8.800;2022-08-02T11:47:08;101644.47;;;29.76;100.00
29549;BME280;16487;53.094;8.800;2022-08-02T11:49:39;101638.94;;;29.65;100.00
29549;BME280;16487;53.094;8.800;2022-08-02T11:52:10;101639.59;;;29.58;100.00
29549;BME280;16487;53.094;8.800;2022-08-02T11:54:41;101622.66;;;30.14;100.00
29549;BME280;16487;53.094;8.800;2022-08-02T11:57:12;101609.81;;;30.15;100.00
29549;BME280;16487;53.094;8.800;2022-08-02T11:59:47;101611.31;;;30.50;100.00
29549;BME280;16487;53.094;8.800;2022-08-02T12:02:17;101613.97;;;30.27;100.00
29549;BME280;16487;53.094;8.800;2022-08-02T12:04:54;101616.22;;;29.14;100.00
29549;BME280;16487;53.094;8.800;2022-08-02T12:07:27;101612.97;;;29.70;100.00
29549;BME280;16487;53.094;8.800;2022-08-02T12:10:03;101617.22;;;29.90;100.00
29549;BME280;16487;53.094;8.800;2022-08-02T12:12:33;101607.56;;;29.54;100.00
29549;BME280;16487;53.094;8.800;2022-08-02T12:15:02;101607.09;;;29.76;100.00
29549;BME280;16487;53.094;8.800;2022-08-02T12:17:30;101601.50;;;29.91;100.00
29549;BME280;16487;53.094;8.800;2022-08-02T12:20:16;101593.84;;;30.48;100.00
29549;BME280;16487;53.094;8.800;2022-08-02T12:22:47;101598.84;;;29.93;100.00
29549;BME280;16487;53.094;8.800;2022-08-02T12:25:17;101597.31;;;29.92;100.00
29549;BME280;16487;53.094;8.800;2022-08-02T12:28:15;101594.72;;;30.22;100.00
29549;BME280;16487;53.094;8.800;2022-08-02T12:30:52;101587.44;;;30.21;100.00
29549;BME280;16487;53.094;8.800;2022-08-02T12:33:22;101587.63;;;29.22;100.00
29549;BME280;16487;53.094;8.800;2022-08-02T12:35:51;101593.88;;;28.68;100.00
29549;BME280;16487;53.094;8.800;2022-08-02T12:38:22;101583.97;;;28.95;100.00
29549;BME280;16487;53.094;8.800;2022-08-02T12:40:50;101577.53;;;29.42;100.00
29549;BME280;16487;53.094;8.800;2022-08-02T12:43:22;101592.16;;;29.17;100.00
29549;BME280;16487;53.094;8.800;2022-08-02T12:45:52;101588.44;;;29.56;100.00
29549;BME280;16487;53.094;8.800;2022-08-02T12:48:33;101569.88;;;29.91;100.00
29549;BME280;16487;53.094;8.800;2022-08-02T12:51:20;101581.66;;;29.67;100.00
29549;BME280;16487;53.094;8.800;2022-08-02T12:53:51;101585.94;;;29.26;100.00
29549;BME280;16487;53.094;8.800;2022-08-02T12:56:28;101587.69;;;29.56;100.00
29549;BME280;16487;53.094;8.800;2022-08-02T12:58:58;101581.25;;;29.16;100.00
29549;BME280;16487;53.094;8.800;2022-08-02T13:01:27;101555.84;;;29.54;100.00
29549;BME280;16487;53.094;8.800;2022-08-02T13:03:56;101577.47;;;29.21;100.00
29549;BME280;16487;53.094;8.800;2022-08-02T13:06:39;101573.38;;;29.16;100.00
29549;BME280;16487;53.094;8.800;2022-08-02T13:09:14;101580.56;;;29.10;100.00
29549;BME280;16487;53.094;8.800;2022-08-02T13:11:43;101576.25;;;29.16;100.00